sensor_id;sensor_type;location;lat;lon;timestamp;P1;durP1;ratioP1;P2;durP2;ratioP2
7033;SDS011;3558;53.176;10.412;2023-08-24T02:45:45;2.28;;;1.65;;
7033;SDS011;3558;53.176;10.412;2023-08-24T02:48:11;1.60;;;1.50;;
7033;SDS011;3558;53.176;10.412;2023-08-24T02:50:36;2.00;;;1.57;;
7033;SDS011;3558;53.176;10.412;2023-08-24T02:53:01;2.80;;;1.70;;
7033;SDS011;3558;53.176;10.412;2023-08-24T02:55:27;2.40;;;1.70;;
7033;SDS011;3558;53.176;10.412;2023-08-24T02:57:53;2.72;;;1.67;;
7033;SDS011;3558;53.176;10.412;2023-08-24T03:00:18;2.00;;;1.70;;
7033;SDS011;3558;53.176;10.412;2023-08-24T03:02:43;2.17;;;1.50;;
7033;SDS011;3558;53.176;10.412;2023-08-24T03:05:09;1.40;;;1.30;;
7033;SDS011;3558;53.176;10.412;2023-08-24T03:07:34;1.65;;;1.55;;
7033;SDS011;3558;53.176;10.412;2023-08-24T03:14:51;1.88;;;1.50;;
7033;SDS011;3558;53.176;10.412;2023-08-24T03:17:18;2.50;;;1.40;;
7033;SDS011;3558;53.176;10.412;2023-08-24T03:19:43;1.75;;;1.60;;
7033;SDS011;3558;53.176;10.412;2023-08-24T03:22:09;1.67;;;1.27;;
7033;SDS011;3558;53.176;10.412;2023-08-24T03:24:34;2.13;;;1.40;;
7033;SDS011;3558;53.176;10.412;2023-08-24T03:27:00;2.58;;;1.77;;
7033;SDS011;3558;53.176;10.412;2023-08-24T03:29:26;2.67;;;1.60;;
7033;SDS011;3558;53.176;10.412;2023-08-24T03:31:51;1.95;;;1.60;;
7033;SDS011;3558;53.176;10.412;2023-08-24T03:34:18;1.65;;;1.40;;
7033;SDS011;3558;53.176;10.412;2023-08-24T03:36:45;2.65;;;1.60;;
7033;SDS011;3558;53.176;10.412;2023-08-24T03:39:12;1.67;;;1.50;;
7033;SDS011;3558;53.176;10.412;2023-08-24T03:41:38;1.75;;;1.40;;
7033;SDS011;3558;53.176;10.412;2023-08-24T03:44:04;1.98;;;1.50;;
7033;SDS011;3558;53.176;10.412;2023-08-24T03:46:29;1.40;;;1.30;;
7033;SDS011;3558;53.176;10.412;2023-08-24T03:48:55;2.50;;;1.33;;
7033;SDS011;3558;53.176;10.412;2023-08-24T03:51:20;1.60;;;1.30;;
7033;SDS011;3558;53.176;10.412;2023-08-24T03:53:46;2.65;;;1.30;;
7033;SDS011;3558;53.176;10.412;2023-08-24T03:56:11;1.48;;;1.35;;
7033;SDS011;3558;53.176;10.412;2023-08-24T03:58:37;1.67;;;1.58;;
7033;SDS011;3558;53.176;10.412;2023-08-24T04:01:02;1.60;;;1.30;;
7033;SDS011;3558;53.176;10.412;2023-08-24T04:03:28;1.90;;;1.30;;
7033;SDS011;3558;53.176;10.412;2023-08-24T04:05:53;2.92;;;1.70;;
7033;SDS011;3558;53.176;10.412;2023-08-24T04:08:19;1.73;;;1.33;;
7033;SDS011;3558;53.176;10.412;2023-08-24T04:10:44;2.05;;;1.50;;
7033;SDS011;3558;53.176;10.412;2023-08-24T04:13:10;2.53;;;1.60;;
7033;SDS011;3558;53.176;10.412;2023-08-24T04:15:35;1.65;;;1.30;;
7033;SDS011;3558;53.176;10.412;2023-08-24T04:18:01;1.52;;;1.40;;
7033;SDS011;3558;53.176;10.412;2023-08-24T04:20:26;1.93;;;1.40;;
7033;SDS011;3558;53.176;10.412;2023-08-24T04:22:52;2.47;;;1.50;;
7033;SDS011;3558;53.176;10.412;2023-08-24T04:25:17;1.80;;;1.33;;
7033;SDS011;3558;53.176;10.412;2023-08-24T04:27:43;1.67;;;1.30;;
7033;SDS011;3558;53.176;10.412;2023-08-24T04:30:08;1.60;;;1.10;;
7033;SDS011;3558;53.176;10.412;2023-08-24T04:32:36;2.63;;;1.50;;
7033;SDS011;3558;53.176;10.412;2023-08-24T04:35:02;1.53;;;1.20;;
7033;SDS011;3558;53.176;10.412;2023-08-24T04:37:28;1.43;;;1.27;;
7033;SDS011;3558;53.176;10.412;2023-08-24T04:39:54;1.53;;;1.37;;
7033;SDS011;3558;53.176;10.412;2023-08-24T04:42:19;2.25;;;1.48;;
7033;SDS011;3558;53.176;10.412;2023-08-24T04:44:45;1.60;;;1.40;;
7033;SDS011;3558;53.176;10.412;2023-08-24T04:47:10;1.37;;;1.27;;
7033;SDS011;3558;53.176;10.412;2023-08-24T04:49:36;3.33;;;1.50;;
7033;SDS011;3558;53.176;10.412;2023-08-24T04:52:02;2.70;;;1.57;;
7033;SDS011;3558;53.176;10.412;2023-08-24T04:54:27;1.30;;;1.20;;
7033;SDS011;3558;53.176;10.412;2023-08-24T04:56:53;2.30;;;1.40;;
7033;SDS011;3558;53.176;10.412;2023-08-24T04:59:18;1.60;;;1.33;;
7033;SDS011;3558;53.176;10.412;2023-08-24T05:01:44;2.17;;;1.30;;
7033;SDS011;3558;53.176;10.412;2023-08-24T05:04:09;2.10;;;1.53;;
7033;SDS011;3558;53.176;10.412;2023-08-24T05:06:35;3.20;;;1.30;;
7033;SDS011;3558;53.176;10.412;2023-08-24T05:09:00;1.73;;;1.50;;
7033;SDS011;3558;53.176;10.412;2023-08-24T05:11:26;1.73;;;1.20;;
7033;SDS011;3558;53.176;10.412;2023-08-24T05:13:54;1.67;;;1.45;;
7033;SDS011;3558;53.176;10.412;2023-08-24T05:16:20;2.65;;;1.65;;
7033;SDS011;3558;53.176;10.412;2023-08-24T05:18:46;2.40;;;1.23;;
7033;SDS011;3558;53.176;10.412;2023-08-24T05:21:11;1.83;;;1.23;;
7033;SDS011;3558;53.176;10.412;2023-08-24T05:23:37;2.35;;;1.40;;
7033;SDS011;3558;53.176;10.412;2023-08-24T05:26:03;1.83;;;1.20;;
7033;SDS011;3558;53.176;10.412;2023-08-24T05:28:29;1.60;;;1.47;;
7033;SDS011;3558;53.176;10.412;2023-08-24T05:30:55;1.95;;;1.52;;
7033;SDS011;3558;53.176;10.412;2023-08-24T05:33:22;2.80;;;1.23;;
7033;SDS011;3558;53.176;10.412;2023-08-24T05:35:49;1.55;;;1.30;;
7033;SDS011;3558;53.176;10.412;2023-08-24T05:38:15;1.93;;;1.77;;
7033;SDS011;3558;53.176;10.412;2023-08-24T05:40:46;3.27;;;1.20;;
7033;SDS011;3558;53.176;10.412;2023-08-24T05:43:12;1.40;;;1.30;;
7033;SDS011;3558;53.176;10.412;2023-08-24T05:45:38;1.57;;;1.17;;
7033;SDS011;3558;53.176;10.412;2023-08-24T05:48:05;2.57;;;1.40;;
7033;SDS011;3558;53.176;10.412;2023-08-24T05:50:31;1.27;;;1.17;;
7033;SDS011;3558;53.176;10.412;2023-08-24T05:52:57;1.37;;;1.10;;
7033;SDS011;3558;53.176;10.412;2023-08-24T05:55:22;1.40;;;1.30;;
7033;SDS011;3558;53.176;10.412;2023-08-24T05:57:48;1.97;;;1.77;;
7033;SDS011;3558;53.176;10.412;2023-08-24T06:00:13;1.93;;;1.20;;
7033;SDS011;3558;53.176;10.412;2023-08-24T06:02:39;1.97;;;1.30;;
7033;SDS011;3558;53.176;10.412;2023-08-24T06:05:05;1.17;;;1.07;;
7033;SDS011;3558;53.176;10.412;2023-08-24T06:07:32;1.60;;;1.23;;
7033;SDS011;3558;53.176;10.412;2023-08-24T06:09:58;1.97;;;1.37;;
7033;SDS011;3558;53.176;10.412;2023-08-24T06:12:24;1.80;;;1.48;;
7033;SDS011;3558;53.176;10.412;2023-08-24T06:14:49;1.83;;;1.33;;
7033;SDS011;3558;53.176;10.412;2023-08-24T06:17:15;1.58;;;1.40;;
7033;SDS011;3558;53.176;10.412;2023-08-24T06:19:41;2.13;;;1.33;;
7033;SDS011;3558;53.176;10.412;2023-08-24T06:22:06;1.48;;;1.23;;
7033;SDS011;3558;53.176;10.412;2023-08-24T06:24:32;3.40;;;1.40;;
7033;SDS011;3558;53.176;10.412;2023-08-24T06:26:57;1.43;;;1.33;;
7033;SDS011;3558;53.176;10.412;2023-08-24T06:29:23;1.70;;;1.07;;
7033;SDS011;3558;53.176;10.412;2023-08-24T06:31:48;1.57;;;1.43;;
7033;SDS011;3558;53.176;10.412;2023-08-24T06:34:14;2.33;;;1.57;;
7033;SDS011;3558;53.176;10.412;2023-08-24T06:36:39;1.80;;;1.10;;
7033;SDS011;3558;53.176;10.412;2023-08-24T06:39:05;1.60;;;1.23;;
7033;SDS011;3558;53.176;10.412;2023-08-24T06:41:34;2.38;;;1.50;;
7033;SDS011;3558;53.176;10.412;2023-08-24T06:44:00;1.40;;;1.30;;
7033;SDS011;3558;53.176;10.412;2023-08-24T06:46:26;1.53;;;1.27;;
7033;SDS011;3558;53.176;10.412;2023-08-24T06:48:51;1.60;;;1.50;;
7033;SDS011;3558;53.176;10.412;2023-08-24T06:51:17;1.85;;;1.40;;
7033;SDS011;3558;53.176;10.412;2023-08-24T06:53:42;3.05;;;1.45;;
7033;SDS011;3558;53.176;10.412;2023-08-24T06:56:08;2.67;;;1.45;;
7033;SDS011;3558;53.176;10.412;2023-08-24T06:58:34;2.72;;;1.58;;
7033;SDS011;3558;53.176;10.412;2023-08-24T07:00:59;1.40;;;1.30;;
7033;SDS011;3558;53.176;10.412;2023-08-24T07:03:25;2.30;;;1.50;;
7033;SDS011;3558;53.176;10.412;2023-08-24T07:05:51;2.75;;;1.40;;
7033;SDS011;3558;53.176;10.412;2023-08-24T07:08:16;2.00;;;1.25;;
7033;SDS011;3558;53.176;10.412;2023-08-24T07:10:42;2.00;;;1.55;;
7033;SDS011;3558;53.176;10.412;2023-08-24T07:13:07;1.60;;;1.50;;
7033;SDS011;3558;53.176;10.412;2023-08-24T07:15:34;1.50;;;1.30;;
7033;SDS011;3558;53.176;10.412;2023-08-24T07:18:00;1.40;;;1.13;;
7033;SDS011;3558;53.176;10.412;2023-08-24T07:20:27;1.73;;;1.52;;
7033;SDS011;3558;53.176;10.412;2023-08-24T07:22:53;1.52;;;1.20;;
7033;SDS011;3558;53.176;10.412;2023-08-24T07:25:19;1.83;;;1.20;;
7033;SDS011;3558;53.176;10.412;2023-08-24T07:27:45;2.00;;;1.48;;
7033;SDS011;3558;53.176;10.412;2023-08-24T07:30:11;1.83;;;1.20;;
7033;SDS011;3558;53.176;10.412;2023-08-24T07:32:37;2.20;;;1.17;;
7033;SDS011;3558;53.176;10.412;2023-08-24T07:35:02;1.90;;;1.15;;
7033;SDS011;3558;53.176;10.412;2023-08-24T07:37:28;1.52;;;1.20;;
7033;SDS011;3558;53.176;10.412;2023-08-24T07:39:54;1.83;;;1.05;;
7033;SDS011;3558;53.176;10.412;2023-08-24T07:42:20;1.73;;;1.48;;
7033;SDS011;3558;53.176;10.412;2023-08-24T07:44:49;1.52;;;1.20;;
7033;SDS011;3558;53.176;10.412;2023-08-24T07:47:15;1.65;;;1.20;;
7033;SDS011;3558;53.176;10.412;2023-08-24T07:49:41;1.70;;;1.10;;
7033;SDS011;3558;53.176;10.412;2023-08-24T07:52:09;1.98;;;1.30;;
7033;SDS011;3558;53.176;10.412;2023-08-24T07:54:36;1.48;;;1.13;;
7033;SDS011;3558;53.176;10.412;2023-08-24T07:57:01;1.55;;;1.10;;
7033;SDS011;3558;53.176;10.412;2023-08-24T07:59:27;1.55;;;1.30;;
7033;SDS011;3558;53.176;10.412;2023-08-24T08:01:52;1.10;;;1.00;;
7033;SDS011;3558;53.176;10.412;2023-08-24T08:04:18;1.52;;;1.17;;
7033;SDS011;3558;53.176;10.412;2023-08-24T08:06:43;1.50;;;1.20;;
7033;SDS011;3558;53.176;10.412;2023-08-24T08:09:09;1.40;;;1.30;;
7033;SDS011;3558;53.176;10.412;2023-08-24T08:11:34;2.10;;;1.20;;
7033;SDS011;3558;53.176;10.412;2023-08-24T08:14:00;1.60;;;1.33;;
7033;SDS011;3558;53.176;10.412;2023-08-24T08:16:25;2.22;;;0.90;;
7033;SDS011;3558;53.176;10.412;2023-08-24T08:18:51;1.55;;;1.13;;
7033;SDS011;3558;53.176;10.412;2023-08-24T08:21:17;1.20;;;0.90;;
7033;SDS011;3558;53.176;10.412;2023-08-24T08:23:43;1.77;;;1.20;;
7033;SDS011;3558;53.176;10.412;2023-08-24T08:26:10;1.05;;;0.95;;
7033;SDS011;3558;53.176;10.412;2023-08-24T08:28:36;1.33;;;1.05;;
7033;SDS011;3558;53.176;10.412;2023-08-24T08:31:01;1.52;;;1.13;;
7033;SDS011;3558;53.176;10.412;2023-08-24T08:33:28;1.25;;;0.90;;
7033;SDS011;3558;53.176;10.412;2023-08-24T08:35:54;3.60;;;1.30;;
7033;SDS011;3558;53.176;10.412;2023-08-24T08:38:20;2.38;;;1.20;;
7033;SDS011;3558;53.176;10.412;2023-08-24T08:40:50;1.75;;;1.10;;
7033;SDS011;3558;53.176;10.412;2023-08-24T08:43:18;2.38;;;1.00;;
7033;SDS011;3558;53.176;10.412;2023-08-24T08:45:46;1.15;;;0.98;;
7033;SDS011;3558;53.176;10.412;2023-08-24T08:48:11;1.17;;;1.00;;
7033;SDS011;3558;53.176;10.412;2023-08-24T08:50:37;1.60;;;0.93;;
7033;SDS011;3558;53.176;10.412;2023-08-24T08:55:28;1.20;;;1.00;;
7033;SDS011;3558;53.176;10.412;2023-08-24T08:57:55;1.58;;;1.00;;
7033;SDS011;3558;53.176;10.412;2023-08-24T09:00:23;2.35;;;1.13;;
7033;SDS011;3558;53.176;10.412;2023-08-24T09:05:16;1.42;;;0.90;;
7033;SDS011;3558;53.176;10.412;2023-08-24T09:07:42;1.90;;;1.30;;
7033;SDS011;3558;53.176;10.412;2023-08-24T09:10:08;2.45;;;1.38;;
7033;SDS011;3558;53.176;10.412;2023-08-24T09:12:34;1.63;;;1.05;;
7033;SDS011;3558;53.176;10.412;2023-08-24T09:19:55;1.40;;;1.02;;
7033;SDS011;3558;53.176;10.412;2023-08-24T09:22:23;1.45;;;1.00;;
7033;SDS011;3558;53.176;10.412;2023-08-24T09:44:30;1.27;;;1.00;;
7033;SDS011;3558;53.176;10.412;2023-08-24T09:46:56;1.30;;;0.90;;
7033;SDS011;3558;53.176;10.412;2023-08-24T09:49:21;1.45;;;1.05;;
7033;SDS011;3558;53.176;10.412;2023-08-24T09:51:47;1.90;;;1.10;;
7033;SDS011;3558;53.176;10.412;2023-08-24T09:54:13;1.50;;;1.00;;
7033;SDS011;3558;53.176;10.412;2023-08-24T09:56:41;1.93;;;1.00;;
7033;SDS011;3558;53.176;10.412;2023-08-24T09:59:17;1.13;;;0.90;;
7033;SDS011;3558;53.176;10.412;2023-08-24T10:01:49;2.30;;;0.93;;
7033;SDS011;3558;53.176;10.412;2023-08-24T10:04:23;1.40;;;0.90;;
7033;SDS011;3558;53.176;10.412;2023-08-24T10:06:51;1.58;;;0.98;;
7033;SDS011;3558;53.176;10.412;2023-08-24T10:09:22;1.10;;;0.88;;
7033;SDS011;3558;53.176;10.412;2023-08-24T10:11:52;1.40;;;1.05;;
7033;SDS011;3558;53.176;10.412;2023-08-24T10:14:37;1.77;;;1.00;;
7033;SDS011;3558;53.176;10.412;2023-08-24T10:17:12;1.20;;;0.95;;
7033;SDS011;3558;53.176;10.412;2023-08-24T10:19:39;1.50;;;1.02;;
7033;SDS011;3558;53.176;10.412;2023-08-24T10:22:06;1.60;;;1.07;;
7033;SDS011;3558;53.176;10.412;2023-08-24T10:24:33;1.60;;;1.00;;
7033;SDS011;3558;53.176;10.412;2023-08-24T10:27:00;1.65;;;0.93;;
7033;SDS011;3558;53.176;10.412;2023-08-24T10:29:27;1.25;;;1.15;;
7033;SDS011;3558;53.176;10.412;2023-08-24T10:31:54;1.48;;;1.05;;
7033;SDS011;3558;53.176;10.412;2023-08-24T10:34:20;1.00;;;0.90;;
7033;SDS011;3558;53.176;10.412;2023-08-24T10:36:47;1.60;;;1.10;;
7033;SDS011;3558;53.176;10.412;2023-08-24T10:39:13;2.50;;;1.35;;
7033;SDS011;3558;53.176;10.412;2023-08-24T10:41:49;1.65;;;1.27;;
7033;SDS011;3558;53.176;10.412;2023-08-24T10:44:20;1.60;;;1.20;;
7033;SDS011;3558;53.176;10.412;2023-08-24T10:47:11;1.58;;;1.10;;
7033;SDS011;3558;53.176;10.412;2023-08-24T10:49:44;1.45;;;1.08;;
7033;SDS011;3558;53.176;10.412;2023-08-24T10:52:22;1.98;;;1.10;;
7033;SDS011;3558;53.176;10.412;2023-08-24T10:54:51;1.65;;;1.20;;
7033;SDS011;3558;53.176;10.412;2023-08-24T11:00:08;1.42;;;1.02;;
7033;SDS011;3558;53.176;10.412;2023-08-24T11:05:20;1.85;;;1.17;;
7033;SDS011;3558;53.176;10.412;2023-08-24T11:08:02;2.55;;;1.13;;
7033;SDS011;3558;53.176;10.412;2023-08-24T11:13:10;1.88;;;1.13;;
7033;SDS011;3558;53.176;10.412;2023-08-24T11:15:41;1.65;;;1.17;;
7033;SDS011;3558;53.176;10.412;2023-08-24T11:18:11;1.97;;;1.33;;
7033;SDS011;3558;53.176;10.412;2023-08-24T11:20:56;1.40;;;1.08;;
7033;SDS011;3558;53.176;10.412;2023-08-24T11:23:27;1.90;;;1.30;;
7033;SDS011;3558;53.176;10.412;2023-08-24T11:25:53;1.50;;;1.08;;
7033;SDS011;3558;53.176;10.412;2023-08-24T11:28:21;1.95;;;1.30;;
7033;SDS011;3558;53.176;10.412;2023-08-24T11:30:54;1.55;;;1.13;;
7033;SDS011;3558;53.176;10.412;2023-08-24T11:33:31;1.48;;;1.05;;
7033;SDS011;3558;53.176;10.412;2023-08-24T11:35:57;1.75;;;1.10;;
7033;SDS011;3558;53.176;10.412;2023-08-24T11:38:24;1.10;;;1.00;;
7033;SDS011;3558;53.176;10.412;2023-08-24T11:40:50;1.27;;;1.05;;
7033;SDS011;3558;53.176;10.412;2023-08-24T11:43:25;2.38;;;1.00;;
7033;SDS011;3558;53.176;10.412;2023-08-24T11:45:54;1.10;;;1.00;;
7033;SDS011;3558;53.176;10.412;2023-08-24T11:48:23;1.10;;;1.00;;
7033;SDS011;3558;53.176;10.412;2023-08-24T11:50:50;1.92;;;1.30;;
7033;SDS011;3558;53.176;10.412;2023-08-24T11:53:16;1.67;;;1.00;;
7033;SDS011;3558;53.176;10.412;2023-08-24T11:55:42;1.55;;;1.20;;
7033;SDS011;3558;53.176;10.412;2023-08-24T11:58:13;1.35;;;1.13;;
7033;SDS011;3558;53.176;10.412;2023-08-24T12:00:40;1.38;;;1.00;;
7033;SDS011;3558;53.176;10.412;2023-08-24T12:03:06;1.85;;;1.38;;
7033;SDS011;3558;53.176;10.412;2023-08-24T12:05:31;1.95;;;1.20;;
7033;SDS011;3558;53.176;10.412;2023-08-24T12:07:57;1.60;;;1.20;;
7033;SDS011;3558;53.176;10.412;2023-08-24T12:10:22;2.35;;;1.50;;
7033;SDS011;3558;53.176;10.412;2023-08-24T12:12:48;1.52;;;1.10;;
7033;SDS011;3558;53.176;10.412;2023-08-24T12:15:20;3.55;;;1.17;;
7033;SDS011;3558;53.176;10.412;2023-08-24T12:17:47;1.88;;;1.35;;
7033;SDS011;3558;53.176;10.412;2023-08-24T12:20:20;1.73;;;1.15;;
7033;SDS011;3558;53.176;10.412;2023-08-24T12:22:54;1.30;;;1.15;;
7033;SDS011;3558;53.176;10.412;2023-08-24T12:25:23;1.80;;;1.08;;
7033;SDS011;3558;53.176;10.412;2023-08-24T12:27:50;1.48;;;1.20;;
7033;SDS011;3558;53.176;10.412;2023-08-24T12:30:17;2.13;;;1.17;;
7033;SDS011;3558;53.176;10.412;2023-08-24T12:32:43;2.13;;;1.10;;
7033;SDS011;3558;53.176;10.412;2023-08-24T12:35:10;2.00;;;1.20;;
7033;SDS011;3558;53.176;10.412;2023-08-24T12:37:36;1.63;;;1.20;;
7033;SDS011;3558;53.176;10.412;2023-08-24T12:40:02;1.15;;;1.05;;
7033;SDS011;3558;53.176;10.412;2023-08-24T12:42:30;1.50;;;1.13;;
7033;SDS011;3558;53.176;10.412;2023-08-24T12:44:56;1.85;;;1.10;;
7033;SDS011;3558;53.176;10.412;2023-08-24T12:47:21;1.10;;;1.00;;
7033;SDS011;3558;53.176;10.412;2023-08-24T12:49:47;1.45;;;1.30;;
7033;SDS011;3558;53.176;10.412;2023-08-24T12:52:13;1.15;;;1.05;;
7033;SDS011;3558;53.176;10.412;2023-08-24T12:54:39;2.78;;;1.40;;
7033;SDS011;3558;53.176;10.412;2023-08-24T12:57:04;1.27;;;1.10;;
7033;SDS011;3558;53.176;10.412;2023-08-24T12:59:30;1.30;;;1.10;;
7033;SDS011;3558;53.176;10.412;2023-08-24T13:01:55;1.30;;;1.20;;
7033;SDS011;3558;53.176;10.412;2023-08-24T13:04:21;1.60;;;1.20;;
7033;SDS011;3558;53.176;10.412;2023-08-24T13:06:46;1.52;;;1.10;;
7033;SDS011;3558;53.176;10.412;2023-08-24T13:09:12;1.35;;;1.02;;
7033;SDS011;3558;53.176;10.412;2023-08-24T13:11:38;1.40;;;1.00;;
7033;SDS011;3558;53.176;10.412;2023-08-24T13:14:04;1.27;;;1.17;;
7033;SDS011;3558;53.176;10.412;2023-08-24T13:16:30;1.30;;;1.00;;
7033;SDS011;3558;53.176;10.412;2023-08-24T13:18:55;1.10;;;1.00;;
7033;SDS011;3558;53.176;10.412;2023-08-24T13:21:21;1.50;;;1.00;;
7033;SDS011;3558;53.176;10.412;2023-08-24T13:23:47;1.30;;;1.13;;
7033;SDS011;3558;53.176;10.412;2023-08-24T13:26:19;1.27;;;1.10;;
7033;SDS011;3558;53.176;10.412;2023-08-24T13:28:48;1.55;;;1.10;;
7033;SDS011;3558;53.176;10.412;2023-08-24T13:31:14;1.55;;;1.13;;
7033;SDS011;3558;53.176;10.412;2023-08-24T13:33:40;1.30;;;0.90;;
7033;SDS011;3558;53.176;10.412;2023-08-24T13:36:06;1.60;;;1.00;;
7033;SDS011;3558;53.176;10.412;2023-08-24T13:38:31;1.45;;;1.05;;
7033;SDS011;3558;53.176;10.412;2023-08-24T13:40:57;1.50;;;1.30;;
7033;SDS011;3558;53.176;10.412;2023-08-24T13:43:22;1.08;;;0.98;;
7033;SDS011;3558;53.176;10.412;2023-08-24T13:45:48;1.13;;;1.00;;
7033;SDS011;3558;53.176;10.412;2023-08-24T13:48:13;1.30;;;1.20;;
7033;SDS011;3558;53.176;10.412;2023-08-24T13:50:40;1.90;;;1.38;;
7033;SDS011;3558;53.176;10.412;2023-08-24T13:53:06;1.10;;;1.00;;
7033;SDS011;3558;53.176;10.412;2023-08-24T13:55:32;1.38;;;1.08;;
7033;SDS011;3558;53.176;10.412;2023-08-24T13:57:57;1.88;;;1.17;;
7033;SDS011;3558;53.176;10.412;2023-08-24T14:00:23;2.35;;;1.00;;
7033;SDS011;3558;53.176;10.412;2023-08-24T14:02:48;1.27;;;1.10;;
7033;SDS011;3558;53.176;10.412;2023-08-24T14:05:14;1.17;;;1.02;;
7033;SDS011;3558;53.176;10.412;2023-08-24T14:07:40;1.30;;;1.20;;
7033;SDS011;3558;53.176;10.412;2023-08-24T14:10:06;1.13;;;1.02;;
7033;SDS011;3558;53.176;10.412;2023-08-24T14:12:32;1.10;;;1.00;;
7033;SDS011;3558;53.176;10.412;2023-08-24T14:14:58;1.17;;;0.90;;
7033;SDS011;3558;53.176;10.412;2023-08-24T14:17:24;1.52;;;1.10;;
7033;SDS011;3558;53.176;10.412;2023-08-24T14:19:50;1.30;;;1.20;;
7033;SDS011;3558;53.176;10.412;2023-08-24T14:22:15;2.13;;;1.20;;
7033;SDS011;3558;53.176;10.412;2023-08-24T14:24:40;1.67;;;1.10;;
7033;SDS011;3558;53.176;10.412;2023-08-24T14:27:06;1.25;;;1.05;;
7033;SDS011;3558;53.176;10.412;2023-08-24T14:29:31;1.20;;;1.10;;
7033;SDS011;3558;53.176;10.412;2023-08-24T14:31:57;1.23;;;1.10;;
7033;SDS011;3558;53.176;10.412;2023-08-24T14:34:22;1.98;;;1.10;;
7033;SDS011;3558;53.176;10.412;2023-08-24T14:36:48;1.20;;;1.10;;
7033;SDS011;3558;53.176;10.412;2023-08-24T14:39:13;1.98;;;1.05;;
7033;SDS011;3558;53.176;10.412;2023-08-24T14:41:39;2.90;;;0.98;;
7033;SDS011;3558;53.176;10.412;2023-08-24T14:44:04;1.25;;;1.10;;
7033;SDS011;3558;53.176;10.412;2023-08-24T14:46:30;1.73;;;1.20;;
7033;SDS011;3558;53.176;10.412;2023-08-24T14:48:55;1.98;;;1.20;;
7033;SDS011;3558;53.176;10.412;2023-08-24T14:51:21;2.05;;;1.25;;
7033;SDS011;3558;53.176;10.412;2023-08-24T14:53:46;2.08;;;1.45;;
7033;SDS011;3558;53.176;10.412;2023-08-24T14:56:11;0.88;;;0.88;;
7033;SDS011;3558;53.176;10.412;2023-08-24T14:58:37;1.27;;;1.02;;
7033;SDS011;3558;53.176;10.412;2023-08-24T15:01:02;1.40;;;1.02;;
7033;SDS011;3558;53.176;10.412;2023-08-24T15:03:28;2.40;;;1.10;;
7033;SDS011;3558;53.176;10.412;2023-08-24T15:05:57;2.10;;;1.25;;
7033;SDS011;3558;53.176;10.412;2023-08-24T15:08:24;1.60;;;1.15;;
7033;SDS011;3558;53.176;10.412;2023-08-24T15:10:50;1.88;;;1.02;;
7033;SDS011;3558;53.176;10.412;2023-08-24T15:13:18;1.52;;;1.15;;
7033;SDS011;3558;53.176;10.412;2023-08-24T15:15:44;1.30;;;1.10;;
7033;SDS011;3558;53.176;10.412;2023-08-24T15:18:09;1.67;;;1.23;;
7033;SDS011;3558;53.176;10.412;2023-08-24T15:20:35;1.23;;;1.10;;
7033;SDS011;3558;53.176;10.412;2023-08-24T15:23:01;1.33;;;1.10;;
7033;SDS011;3558;53.176;10.412;2023-08-24T15:25:27;1.63;;;1.23;;
7033;SDS011;3558;53.176;10.412;2023-08-24T15:27:52;1.83;;;1.15;;
7033;SDS011;3558;53.176;10.412;2023-08-24T15:30:18;1.50;;;1.20;;
7033;SDS011;3558;53.176;10.412;2023-08-24T15:32:44;2.17;;;1.27;;
7033;SDS011;3558;53.176;10.412;2023-08-24T15:35:09;2.08;;;1.20;;
7033;SDS011;3558;53.176;10.412;2023-08-24T15:37:35;1.75;;;1.30;;
7033;SDS011;3558;53.176;10.412;2023-08-24T15:40:00;2.30;;;1.42;;
7033;SDS011;3558;53.176;10.412;2023-08-24T15:42:28;1.63;;;1.13;;
7033;SDS011;3558;53.176;10.412;2023-08-24T15:44:54;1.10;;;1.00;;
7033;SDS011;3558;53.176;10.412;2023-08-24T15:47:20;1.33;;;1.20;;
7033;SDS011;3558;53.176;10.412;2023-08-24T15:49:46;1.95;;;1.20;;
7033;SDS011;3558;53.176;10.412;2023-08-24T15:52:12;2.88;;;1.60;;
7033;SDS011;3558;53.176;10.412;2023-08-24T15:54:38;1.70;;;1.27;;
7033;SDS011;3558;53.176;10.412;2023-08-24T15:57:04;1.65;;;1.20;;
7033;SDS011;3558;53.176;10.412;2023-08-24T15:59:29;2.15;;;1.45;;
7033;SDS011;3558;53.176;10.412;2023-08-24T16:01:55;2.45;;;1.27;;
7033;SDS011;3558;53.176;10.412;2023-08-24T16:04:20;1.50;;;1.30;;
7033;SDS011;3558;53.176;10.412;2023-08-24T16:06:46;1.58;;;1.30;;
7033;SDS011;3558;53.176;10.412;2023-08-24T16:09:11;2.55;;;1.30;;
7033;SDS011;3558;53.176;10.412;2023-08-24T16:11:37;1.30;;;1.17;;
7033;SDS011;3558;53.176;10.412;2023-08-24T16:14:03;1.77;;;1.20;;
7033;SDS011;3558;53.176;10.412;2023-08-24T16:16:29;1.83;;;1.38;;
7033;SDS011;3558;53.176;10.412;2023-08-24T16:18:58;1.60;;;1.30;;
7033;SDS011;3558;53.176;10.412;2023-08-24T16:21:25;1.65;;;1.10;;
7033;SDS011;3558;53.176;10.412;2023-08-24T16:23:51;1.30;;;1.20;;
7033;SDS011;3558;53.176;10.412;2023-08-24T16:26:17;1.52;;;1.30;;
7033;SDS011;3558;53.176;10.412;2023-08-24T16:28:45;3.50;;;1.52;;
7033;SDS011;3558;53.176;10.412;2023-08-24T16:31:13;2.60;;;1.20;;
7033;SDS011;3558;53.176;10.412;2023-08-24T16:33:39;1.67;;;1.20;;
7033;SDS011;3558;53.176;10.412;2023-08-24T16:36:05;1.40;;;1.23;;
7033;SDS011;3558;53.176;10.412;2023-08-24T16:38:31;1.73;;;1.40;;
7033;SDS011;3558;53.176;10.412;2023-08-24T16:40:57;3.28;;;1.50;;
7033;SDS011;3558;53.176;10.412;2023-08-24T16:43:22;1.40;;;1.30;;
7033;SDS011;3558;53.176;10.412;2023-08-24T16:45:48;1.83;;;1.35;;
7033;SDS011;3558;53.176;10.412;2023-08-24T16:48:14;3.75;;;1.58;;
7033;SDS011;3558;53.176;10.412;2023-08-24T16:50:41;2.65;;;1.60;;
7033;SDS011;3558;53.176;10.412;2023-08-24T16:53:07;4.20;;;1.70;;
7033;SDS011;3558;53.176;10.412;2023-08-24T16:55:33;1.80;;;1.40;;
7033;SDS011;3558;53.176;10.412;2023-08-24T16:57:58;1.98;;;1.52;;
7033;SDS011;3558;53.176;10.412;2023-08-24T17:00:24;2.75;;;1.65;;
7033;SDS011;3558;53.176;10.412;2023-08-24T17:02:49;1.67;;;1.20;;
7033;SDS011;3558;53.176;10.412;2023-08-24T17:05:15;2.58;;;1.70;;
7033;SDS011;3558;53.176;10.412;2023-08-24T17:07:40;1.83;;;1.40;;
7033;SDS011;3558;53.176;10.412;2023-08-24T17:10:06;3.10;;;1.52;;
7033;SDS011;3558;53.176;10.412;2023-08-24T17:12:32;1.80;;;1.60;;
7033;SDS011;3558;53.176;10.412;2023-08-24T17:14:58;2.55;;;1.90;;
7033;SDS011;3558;53.176;10.412;2023-08-24T17:17:23;1.80;;;1.60;;
7033;SDS011;3558;53.176;10.412;2023-08-24T17:19:49;3.20;;;1.95;;
7033;SDS011;3558;53.176;10.412;2023-08-24T17:22:15;2.60;;;1.80;;
7033;SDS011;3558;53.176;10.412;2023-08-24T17:24:41;2.40;;;1.63;;
7033;SDS011;3558;53.176;10.412;2023-08-24T17:27:07;2.22;;;1.63;;
7033;SDS011;3558;53.176;10.412;2023-08-24T17:29:32;2.28;;;1.55;;
7033;SDS011;3558;53.176;10.412;2023-08-24T17:31:58;3.10;;;1.70;;
7033;SDS011;3558;53.176;10.412;2023-08-24T17:34:24;4.00;;;1.52;;
7033;SDS011;3558;53.176;10.412;2023-08-24T17:36:49;2.80;;;1.50;;
7033;SDS011;3558;53.176;10.412;2023-08-24T17:39:15;2.47;;;1.83;;
7033;SDS011;3558;53.176;10.412;2023-08-24T17:41:40;1.77;;;1.60;;
7033;SDS011;3558;53.176;10.412;2023-08-24T17:44:06;1.77;;;1.60;;
7033;SDS011;3558;53.176;10.412;2023-08-24T17:46:34;1.85;;;1.50;;
7033;SDS011;3558;53.176;10.412;2023-08-24T17:49:00;2.85;;;1.70;;
7033;SDS011;3558;53.176;10.412;2023-08-24T17:51:25;1.52;;;1.42;;
7033;SDS011;3558;53.176;10.412;2023-08-24T17:53:53;3.08;;;1.92;;
7033;SDS011;3558;53.176;10.412;2023-08-24T17:56:19;1.92;;;1.73;;
7033;SDS011;3558;53.176;10.412;2023-08-24T17:58:45;2.42;;;1.83;;
7033;SDS011;3558;53.176;10.412;2023-08-24T18:01:10;1.70;;;1.50;;
7033;SDS011;3558;53.176;10.412;2023-08-24T18:03:36;2.40;;;1.63;;
7033;SDS011;3558;53.176;10.412;2023-08-24T18:06:01;3.15;;;1.70;;
7033;SDS011;3558;53.176;10.412;2023-08-24T18:08:27;1.92;;;1.73;;
7033;SDS011;3558;53.176;10.412;2023-08-24T18:11:00;2.63;;;1.73;;
7033;SDS011;3558;53.176;10.412;2023-08-24T18:13:27;2.10;;;1.90;;
7033;SDS011;3558;53.176;10.412;2023-08-24T18:15:52;1.73;;;1.60;;
7033;SDS011;3558;53.176;10.412;2023-08-24T18:18:18;1.90;;;1.52;;
7033;SDS011;3558;53.176;10.412;2023-08-24T18:20:43;1.88;;;1.60;;
7033;SDS011;3558;53.176;10.412;2023-08-24T18:23:10;1.83;;;1.60;;